createdAt,value
2019-01-11T00:00:46.216Z,11.88
2019-01-11T00:03:16.998Z,11.95
2019-01-11T00:05:46.107Z,14.15
2019-01-11T00:08:15.088Z,10.10
2019-01-11T00:10:43.989Z,7.40
2019-01-11T00:13:12.789Z,13.13
2019-01-11T00:15:41.669Z,11.00
2019-01-11T00:18:10.299Z,12.23
2019-01-11T00:20:39.246Z,10.05
2019-01-11T00:23:08.158Z,13.10
2019-01-11T00:25:36.787Z,12.35
2019-01-11T00:28:05.814Z,10.00
2019-01-11T00:30:34.707Z,12.37
2019-01-11T00:33:03.597Z,13.70
2019-01-11T00:35:32.489Z,12.93
2019-01-11T00:38:01.378Z,13.75
2019-01-11T00:40:30.012Z,14.78
2019-01-11T00:42:58.955Z,13.90
2019-01-11T00:45:27.948Z,14.00
2019-01-11T00:47:56.839Z,14.43
2019-01-11T00:50:25.470Z,17.75
2019-01-11T00:52:54.091Z,16.52
2019-01-11T00:55:22.999Z,16.30
2019-01-11T00:57:51.991Z,13.53
2019-01-11T01:00:21.425Z,16.50
2019-01-11T01:02:50.213Z,13.08
2019-01-11T01:05:19.289Z,13.72
2019-01-11T01:07:48.143Z,13.90
2019-01-11T01:10:18.494Z,12.78
2019-01-11T01:12:47.189Z,12.13
2019-01-11T01:15:16.389Z,14.55
2019-01-11T01:17:45.681Z,13.30
2019-01-11T01:20:14.627Z,12.68
2019-01-11T01:22:43.338Z,12.40
2019-01-11T01:25:12.662Z,12.07
2019-01-11T01:27:41.469Z,9.58
2019-01-11T01:30:12.998Z,8.68
2019-01-11T01:32:41.722Z,11.38
2019-01-11T01:35:10.788Z,7.97
2019-01-11T01:37:39.540Z,9.08
2019-01-11T01:40:10.207Z,9.43
2019-01-11T01:42:39.307Z,11.08
2019-01-11T01:45:10.544Z,10.72
2019-01-11T01:47:39.172Z,9.38
2019-01-11T01:50:08.920Z,9.98
2019-01-11T01:52:37.843Z,9.33
2019-01-11T01:55:08.421Z,9.97
2019-01-11T01:57:37.360Z,9.58
2019-01-11T02:00:07.585Z,9.40
2019-01-11T02:02:36.783Z,9.35
2019-01-11T02:05:07.080Z,9.73
2019-01-11T02:07:35.721Z,10.03
2019-01-11T02:10:05.896Z,9.13
2019-01-11T02:12:34.838Z,11.53
2019-01-11T02:15:04.121Z,9.23
2019-01-11T02:17:32.741Z,9.75
2019-01-11T02:20:01.469Z,10.48
2019-01-11T02:22:30.486Z,10.10
2019-01-11T02:24:59.481Z,9.00
2019-01-11T02:27:28.454Z,11.65
2019-01-11T02:29:57.665Z,9.78
2019-01-11T02:32:26.313Z,8.13
2019-01-11T02:34:55.234Z,11.90
2019-01-11T02:37:24.544Z,12.43
2019-01-11T02:39:53.276Z,8.55
2019-01-11T02:42:22.248Z,12.18
2019-01-11T02:44:51.529Z,10.58
2019-01-11T02:47:20.720Z,11.85
2019-01-11T02:49:49.612Z,12.30
2019-01-11T02:52:18.233Z,9.15
2019-01-11T02:54:47.194Z,11.65
2019-01-11T02:57:16.184Z,12.73
2019-01-11T02:59:45.075Z,13.55
2019-01-11T03:02:13.798Z,11.80
2019-01-11T03:04:42.738Z,12.13
2019-01-11T03:07:11.745Z,11.10
2019-01-11T03:09:40.378Z,11.28
2019-01-11T03:12:09.089Z,12.23
2019-01-11T03:14:37.723Z,12.33
2019-01-11T03:17:06.699Z,14.00
2019-01-11T03:19:35.998Z,12.75
2019-01-11T03:22:05.063Z,13.62
2019-01-11T03:24:33.706Z,12.70
2019-01-11T03:27:02.672Z,15.03
2019-01-11T03:29:31.672Z,14.63
2019-01-11T03:32:00.668Z,14.70
2019-01-11T03:34:29.559Z,17.05
2019-01-11T03:36:58.450Z,14.85
2019-01-11T03:39:27.332Z,14.63
2019-01-11T03:42:08.671Z,18.05
2019-01-11T03:44:37.336Z,22.48
2019-01-11T03:47:06.057Z,21.42
2019-01-11T03:49:34.704Z,24.35
2019-01-11T03:52:03.355Z,24.52
2019-01-11T03:54:31.980Z,24.02
2019-01-11T03:57:01.351Z,18.82
2019-01-11T03:59:30.344Z,26.48
2019-01-11T04:01:59.062Z,24.25
2019-01-11T04:04:27.778Z,27.82
2019-01-11T04:06:56.492Z,22.27
2019-01-11T04:09:25.132Z,23.92
2019-01-11T04:11:53.776Z,26.95
2019-01-11T04:14:22.786Z,23.95
2019-01-11T04:16:52.072Z,32.28
2019-01-11T04:19:20.701Z,27.07
2019-01-11T04:22:07.332Z,21.63
2019-01-11T04:24:51.471Z,36.30
2019-01-11T04:27:20.134Z,30.60
2019-01-11T04:29:49.087Z,29.87
2019-01-11T04:32:17.998Z,37.57
2019-01-11T04:34:46.972Z,37.30
2019-01-11T04:37:15.594Z,43.20
2019-01-11T04:39:44.247Z,34.40
2019-01-11T04:42:12.870Z,40.63
2019-01-11T04:44:41.926Z,40.12
2019-01-11T04:47:10.564Z,40.50
2019-01-11T04:49:40.434Z,45.90
2019-01-11T04:52:09.423Z,54.57
2019-01-11T04:54:38.148Z,46.77
2019-01-11T04:57:06.795Z,41.63
2019-01-11T04:59:35.441Z,55.03
2019-01-11T05:02:04.220Z,51.60
2019-01-11T05:04:32.886Z,61.57
2019-01-11T05:07:01.514Z,63.77
2019-01-11T05:09:30.146Z,58.57
2019-01-11T05:12:00.131Z,39.93
2019-01-11T05:14:29.025Z,61.03
2019-01-11T05:16:58.328Z,60.83
2019-01-11T05:19:27.324Z,64.73
2019-01-11T05:21:56.044Z,60.67
2019-01-11T05:24:25.002Z,58.20
2019-01-11T05:26:54.201Z,63.70
2019-01-11T05:29:22.810Z,59.00
2019-01-11T05:31:51.784Z,52.17
2019-01-11T05:34:20.453Z,47.37
2019-01-11T05:36:49.350Z,51.80
2019-01-11T05:39:18.247Z,59.50
2019-01-11T05:41:46.891Z,47.67
2019-01-11T05:44:15.827Z,49.83
2019-01-11T05:46:45.125Z,50.97
2019-01-11T05:49:13.965Z,40.83
2019-01-11T05:51:42.601Z,51.43
2019-01-11T05:54:11.615Z,46.93
2019-01-11T05:56:40.262Z,52.20
2019-01-11T05:59:09.607Z,53.27
2019-01-11T06:01:38.575Z,53.13
2019-01-11T06:04:24.865Z,51.97
2019-01-11T06:07:11.348Z,40.10
2019-01-11T06:09:41.602Z,49.50
2019-01-11T06:12:10.484Z,40.30
2019-01-11T06:14:39.089Z,55.70
2019-01-11T06:17:08.179Z,46.83
2019-01-11T06:19:37.475Z,46.27
2019-01-11T06:22:06.196Z,53.80
2019-01-11T06:24:35.157Z,53.23
2019-01-11T06:27:04.251Z,52.30
2019-01-11T06:29:33.248Z,45.53
2019-01-11T06:32:02.240Z,44.40
2019-01-11T06:34:30.949Z,47.20
2019-01-11T06:36:59.594Z,52.83
2019-01-11T06:39:29.116Z,52.47
2019-01-11T06:42:05.184Z,50.10
2019-01-11T06:44:38.962Z,42.87
2019-01-11T06:47:04.494Z,56.10
2019-01-11T06:49:33.388Z,48.10
2019-01-11T06:52:02.890Z,45.87
2019-01-11T06:54:31.789Z,47.70
2019-01-11T06:57:00.675Z,49.53
2019-01-11T06:59:29.326Z,48.53
2019-01-11T07:01:57.954Z,43.27
2019-01-11T07:04:26.595Z,42.17
2019-01-11T07:06:55.524Z,42.87
2019-01-11T07:09:24.160Z,46.80
2019-01-11T07:11:53.104Z,41.53
2019-01-11T07:14:22.094Z,34.87
2019-01-11T07:16:50.987Z,43.60
2019-01-11T07:19:19.654Z,41.43
2019-01-11T07:21:48.566Z,40.07
2019-01-11T07:24:17.563Z,48.27
2019-01-11T07:26:46.207Z,46.83
2019-01-11T07:29:14.838Z,43.67
2019-01-11T07:31:46.300Z,33.17
2019-01-11T07:34:14.934Z,45.47
2019-01-11T07:36:52.194Z,44.20
2019-01-11T07:39:27.571Z,45.83
2019-01-11T07:41:56.486Z,42.60
2019-01-11T07:44:26.717Z,45.77
2019-01-11T07:46:55.906Z,43.23
2019-01-11T07:49:24.803Z,39.03
2019-01-11T07:51:53.778Z,46.27
2019-01-11T07:54:23.094Z,43.27
2019-01-11T07:56:53.319Z,49.73
2019-01-11T07:59:23.009Z,50.53
2019-01-11T08:01:51.920Z,46.27
2019-01-11T08:04:20.539Z,40.87
2019-01-11T08:06:49.241Z,42.60
2019-01-11T08:09:18.181Z,53.23
2019-01-11T08:11:46.981Z,35.93
2019-01-11T08:14:15.696Z,29.10
2019-01-11T08:16:45.065Z,48.60
2019-01-11T08:19:15.039Z,44.43
2019-01-11T08:21:44.083Z,40.23
2019-01-11T08:24:13.077Z,41.77
2019-01-11T08:26:42.684Z,41.53
2019-01-11T08:29:11.589Z,41.77
2019-01-11T08:31:40.318Z,28.17
2019-01-11T08:34:09.663Z,38.10
2019-01-11T08:36:38.556Z,36.93
2019-01-11T08:39:10.823Z,22.67
2019-01-11T08:41:39.455Z,33.30
2019-01-11T08:44:08.398Z,27.20
2019-01-11T08:46:37.294Z,28.03
2019-01-11T08:49:06.086Z,33.70
2019-01-11T08:51:35.141Z,34.13
2019-01-11T08:54:03.924Z,31.43
2019-01-11T08:56:32.986Z,31.30
2019-01-11T08:59:01.602Z,39.00
2019-01-11T09:01:30.248Z,23.83
2019-01-11T09:03:59.218Z,30.60
2019-01-11T09:06:28.220Z,31.40
2019-01-11T09:08:57.106Z,24.40
2019-01-11T09:11:26.100Z,27.03
2019-01-11T09:13:55.407Z,32.10
2019-01-11T09:16:24.381Z,36.60
2019-01-11T09:18:55.182Z,27.30
2019-01-11T09:21:23.929Z,32.03
2019-01-11T09:23:52.827Z,29.13
2019-01-11T09:26:21.534Z,26.47
2019-01-11T09:28:50.535Z,30.97
2019-01-11T09:31:20.506Z,26.10
2019-01-11T09:33:49.171Z,28.40
2019-01-11T09:36:17.819Z,24.63
2019-01-11T09:38:46.465Z,26.77
2019-01-11T09:41:15.181Z,25.40
2019-01-11T09:43:43.894Z,30.53
2019-01-11T09:46:13.135Z,30.93
2019-01-11T09:48:42.031Z,24.90
2019-01-11T09:51:15.659Z,31.83
2019-01-11T09:53:41.785Z,26.50
2019-01-11T09:56:11.053Z,21.80
2019-01-11T09:58:39.943Z,29.40
2019-01-11T10:01:08.647Z,28.20
2019-01-11T10:03:37.395Z,29.07
2019-01-11T10:06:06.432Z,21.17
2019-01-11T10:08:35.304Z,40.50
2019-01-11T10:11:04.009Z,22.17
2019-01-11T10:13:32.899Z,22.83
2019-01-11T10:16:01.601Z,19.10
2019-01-11T10:18:30.563Z,17.33
2019-01-11T10:20:59.563Z,17.97
2019-01-11T10:23:28.191Z,22.77
2019-01-11T10:25:57.447Z,11.37
2019-01-11T10:28:26.754Z,18.13
2019-01-11T10:31:00.658Z,18.27
2019-01-11T10:33:26.068Z,21.03
2019-01-11T10:35:54.986Z,19.10
2019-01-11T10:38:23.953Z,22.13
2019-01-11T10:40:52.579Z,17.67
2019-01-11T10:43:21.343Z,20.53
2019-01-11T10:45:49.988Z,14.90
2019-01-11T10:48:19.309Z,16.17
2019-01-11T10:50:47.978Z,22.33
2019-01-11T10:53:16.620Z,15.80
2019-01-11T10:55:45.579Z,11.60
2019-01-11T10:58:14.566Z,11.87
2019-01-11T11:00:43.288Z,15.77
2019-01-11T11:03:12.245Z,14.53
2019-01-11T11:05:40.853Z,12.37
2019-01-11T11:08:09.822Z,16.43
2019-01-11T11:10:38.444Z,17.57
2019-01-11T11:13:07.326Z,9.60
2019-01-11T11:15:36.295Z,11.33
2019-01-11T11:18:05.094Z,12.50
2019-01-11T11:20:33.742Z,12.73
2019-01-11T11:23:02.659Z,10.53
2019-01-11T11:25:31.650Z,8.57
2019-01-11T11:28:00.859Z,10.87
2019-01-11T11:30:29.845Z,10.37
2019-01-11T11:32:59.704Z,7.57
2019-01-11T11:35:29.419Z,10.40
2019-01-11T11:37:58.459Z,5.67
2019-01-11T11:40:28.258Z,10.60
2019-01-11T11:42:56.974Z,7.97
2019-01-11T11:45:25.858Z,7.03
2019-01-11T11:47:54.749Z,6.83
2019-01-11T11:50:23.806Z,5.33
2019-01-11T11:52:52.737Z,3.90
2019-01-11T11:55:21.628Z,9.97
2019-01-11T11:57:50.645Z,5.60
2019-01-11T12:00:27.373Z,5.57
2019-01-11T12:02:56.114Z,5.40
2019-01-11T12:05:24.830Z,8.20
2019-01-11T12:07:53.851Z,6.87
2019-01-11T12:10:22.567Z,10.17
2019-01-11T12:12:51.185Z,7.07
2019-01-11T12:15:20.229Z,7.03
2019-01-11T12:17:48.846Z,9.67
2019-01-11T12:20:29.299Z,9.70
2019-01-11T12:22:58.095Z,8.60
2019-01-11T12:25:27.059Z,11.77
2019-01-11T12:27:55.695Z,7.13
2019-01-11T12:30:24.634Z,5.53
2019-01-11T12:32:53.263Z,9.27
2019-01-11T12:35:22.211Z,7.70
2019-01-11T12:37:50.841Z,9.87
2019-01-11T12:40:19.875Z,11.23
2019-01-11T12:42:48.498Z,9.50
2019-01-11T12:45:17.305Z,8.80
2019-01-11T12:47:45.978Z,7.73
2019-01-11T12:50:23.252Z,9.37
2019-01-11T12:52:51.879Z,9.57
2019-01-11T12:55:20.922Z,11.17
2019-01-11T12:57:49.615Z,12.70
2019-01-11T13:00:18.701Z,7.33
2019-01-11T13:02:47.407Z,11.20
2019-01-11T13:05:18.691Z,4.87
2019-01-11T13:07:47.413Z,8.13
2019-01-11T13:10:17.330Z,15.30
2019-01-11T13:12:46.032Z,6.50
2019-01-11T13:15:17.124Z,14.40
2019-01-11T13:17:46.265Z,6.70
2019-01-11T13:20:16.275Z,15.47
2019-01-11T13:22:45.333Z,6.43
2019-01-11T13:25:14.062Z,16.67
2019-01-11T13:27:42.685Z,10.63
2019-01-11T13:30:13.797Z,8.43
2019-01-11T13:32:42.788Z,8.43
2019-01-11T13:35:11.586Z,13.20
2019-01-11T13:37:40.778Z,10.67
2019-01-11T13:40:16.061Z,12.47
2019-01-11T13:42:45.055Z,13.23
2019-01-11T13:45:14.723Z,12.57
2019-01-11T13:47:43.614Z,17.33
2019-01-11T13:50:19.271Z,16.70
2019-01-11T13:52:47.938Z,13.03
2019-01-11T13:55:16.941Z,10.20
2019-01-11T13:57:45.937Z,16.40
2019-01-11T14:00:15.033Z,14.17
2019-01-11T14:02:44.042Z,11.40
2019-01-11T14:05:12.768Z,20.23
2019-01-11T14:07:41.385Z,12.53
2019-01-11T14:10:10.078Z,11.67
2019-01-11T14:12:38.737Z,13.47
2019-01-11T14:15:07.970Z,14.33
2019-01-11T14:17:36.602Z,17.23
2019-01-11T14:20:06.173Z,14.90
2019-01-11T14:22:34.831Z,11.97
2019-01-11T14:25:03.474Z,17.10
2019-01-11T14:27:32.138Z,17.73
2019-01-11T14:30:01.115Z,19.27
2019-01-11T14:32:29.743Z,13.13
2019-01-11T14:34:59.014Z,17.20
2019-01-11T14:37:32.250Z,10.67
2019-01-11T14:39:58.718Z,20.27
2019-01-11T14:42:27.722Z,15.73
2019-01-11T14:44:56.646Z,14.80
2019-01-11T14:47:25.276Z,17.13
2019-01-11T14:49:54.499Z,19.90
2019-01-11T14:52:23.303Z,20.00
2019-01-11T14:54:52.276Z,19.80
2019-01-11T14:57:21.274Z,28.03
2019-01-11T14:59:50.572Z,13.63
2019-01-11T15:02:19.287Z,18.80
2019-01-11T15:04:48.256Z,19.80
2019-01-11T15:07:16.921Z,19.47
2019-01-11T15:09:45.576Z,22.07
2019-01-11T15:12:14.518Z,25.80
2019-01-11T15:14:43.147Z,16.57
2019-01-11T15:17:12.094Z,20.63
2019-01-11T15:19:41.091Z,31.57
2019-01-11T15:22:09.735Z,18.10
2019-01-11T15:24:38.665Z,29.23
2019-01-11T15:27:07.324Z,19.93
2019-01-11T15:29:36.554Z,19.07
2019-01-11T15:32:05.389Z,20.23
2019-01-11T15:34:34.335Z,25.47
2019-01-11T15:37:03.637Z,27.53
2019-01-11T15:39:35.319Z,31.83
2019-01-11T15:42:04.018Z,31.00
2019-01-11T15:44:32.659Z,21.43
2019-01-11T15:47:02.151Z,28.03
2019-01-11T15:49:31.063Z,30.27
2019-01-11T15:51:59.766Z,25.10
2019-01-11T15:54:28.742Z,43.30
2019-01-11T15:56:57.739Z,25.83
2019-01-11T15:59:26.741Z,36.57
2019-01-11T16:01:55.571Z,28.73
2019-01-11T16:04:24.854Z,35.40
2019-01-11T16:06:54.224Z,31.13
2019-01-11T16:10:01.218Z,32.63
2019-01-11T16:12:51.713Z,39.93
2019-01-11T16:15:46.880Z,35.10
2019-01-11T16:18:25.343Z,31.83
2019-01-11T16:20:54.391Z,27.33
2019-01-11T16:23:23.528Z,41.37
2019-01-11T16:25:52.522Z,44.60
2019-01-11T16:28:21.196Z,37.90
2019-01-11T16:30:50.200Z,34.03
2019-01-11T16:33:18.830Z,40.37
2019-01-11T16:35:47.553Z,36.50
2019-01-11T16:38:16.603Z,41.43
2019-01-11T16:40:45.456Z,40.17
2019-01-11T16:43:14.351Z,35.87
2019-01-11T16:45:43.544Z,37.70
2019-01-11T16:48:13.080Z,32.00
2019-01-11T16:50:42.024Z,33.93
2019-01-11T16:53:10.672Z,33.10
2019-01-11T16:55:40.126Z,33.37
2019-01-11T16:58:09.024Z,44.30
2019-01-11T17:00:37.658Z,44.00
2019-01-11T17:03:06.705Z,40.27
2019-01-11T17:05:35.600Z,34.03
2019-01-11T17:08:04.598Z,43.60
2019-01-11T17:10:33.587Z,30.07
2019-01-11T17:13:02.242Z,39.20
2019-01-11T17:15:30.961Z,38.00
2019-01-11T17:17:59.845Z,34.47
2019-01-11T17:20:28.746Z,28.00
2019-01-11T17:22:57.730Z,36.20
2019-01-11T17:25:27.142Z,36.07
2019-01-11T17:27:56.027Z,45.93
2019-01-11T17:30:24.913Z,34.63
2019-01-11T17:32:54.465Z,46.00
2019-01-11T17:35:23.154Z,43.57
2019-01-11T17:37:52.413Z,43.40
2019-01-11T17:40:21.158Z,43.43
2019-01-11T17:42:49.812Z,51.40
2019-01-11T17:45:18.530Z,40.03
2019-01-11T17:47:47.463Z,39.10
2019-01-11T17:50:19.567Z,47.20
2019-01-11T17:52:48.929Z,47.77
2019-01-11T17:55:17.820Z,48.87
2019-01-11T17:57:46.805Z,44.33
2019-01-11T18:00:17.658Z,42.50
2019-01-11T18:02:46.362Z,42.47
2019-01-11T18:05:16.778Z,51.67
2019-01-11T18:07:45.580Z,38.40
2019-01-11T18:10:14.226Z,42.70
2019-01-11T18:12:43.135Z,29.97
2019-01-11T18:15:19.225Z,38.50
2019-01-11T18:17:48.809Z,55.73
2019-01-11T18:20:20.338Z,60.13
2019-01-11T18:22:49.281Z,33.13
2019-01-11T18:25:17.990Z,42.30
2019-01-11T18:27:46.943Z,47.67
2019-01-11T18:30:16.066Z,42.37
2019-01-11T18:32:45.131Z,55.13
2019-01-11T18:35:14.399Z,43.77
2019-01-11T18:37:43.852Z,43.50
2019-01-11T18:40:16.080Z,55.97
2019-01-11T18:42:44.827Z,49.03
2019-01-11T18:45:14.030Z,37.17
2019-01-11T18:47:42.730Z,44.83
2019-01-11T18:50:14.791Z,43.27
2019-01-11T18:52:44.033Z,55.50
2019-01-11T18:55:12.964Z,41.57
2019-01-11T18:57:41.661Z,49.13
2019-01-11T19:00:14.085Z,54.70
2019-01-11T19:02:43.453Z,47.50
2019-01-11T19:05:13.198Z,48.47
2019-01-11T19:07:45.982Z,49.50
2019-01-11T19:10:13.991Z,48.30
2019-01-11T19:12:42.700Z,52.93
2019-01-11T19:15:16.429Z,54.83
2019-01-11T19:17:45.433Z,43.50
2019-01-11T19:20:19.753Z,43.97
2019-01-11T19:22:50.019Z,55.60
2019-01-11T19:25:18.945Z,49.50
2019-01-11T19:27:48.730Z,52.13
2019-01-11T19:30:19.742Z,54.47
2019-01-11T19:32:49.027Z,39.20
2019-01-11T19:35:18.532Z,47.77
2019-01-11T19:37:47.527Z,55.33
2019-01-11T19:40:16.322Z,54.03
2019-01-11T19:42:45.315Z,55.90
2019-01-11T19:45:14.616Z,47.87
2019-01-11T19:47:43.503Z,53.30
2019-01-11T19:50:15.025Z,46.57
2019-01-11T19:52:44.153Z,48.70
2019-01-11T19:55:13.250Z,48.57
2019-01-11T19:57:42.342Z,45.67
2019-01-11T20:00:17.179Z,45.50
2019-01-11T20:02:46.007Z,56.50
2019-01-11T20:05:14.793Z,53.67
2019-01-11T20:07:44.161Z,41.10
2019-01-11T20:10:18.800Z,46.73
2019-01-11T20:12:47.978Z,40.87
2019-01-11T20:15:17.057Z,51.47
2019-01-11T20:17:46.068Z,49.70
2019-01-11T20:20:14.880Z,47.40
2019-01-11T20:22:44.258Z,53.77
2019-01-11T20:25:15.494Z,61.97
2019-01-11T20:27:44.300Z,51.90
2019-01-11T20:30:16.160Z,56.67
2019-01-11T20:32:45.186Z,54.23
2019-01-11T20:35:13.980Z,48.60
2019-01-11T20:37:43.142Z,49.60
2019-01-11T20:40:13.030Z,41.37
2019-01-11T20:42:41.962Z,49.60
2019-01-11T20:45:13.472Z,49.37
2019-01-11T20:47:43.085Z,52.00
2019-01-11T20:50:15.099Z,66.70
2019-01-11T20:52:44.166Z,64.60
2019-01-11T20:55:12.963Z,47.67
2019-01-11T20:57:42.140Z,48.10
2019-01-11T21:00:15.871Z,44.23
2019-01-11T21:02:46.078Z,59.57
2019-01-11T21:05:14.908Z,48.43
2019-01-11T21:07:47.149Z,51.67
2019-01-11T21:10:16.340Z,42.77
2019-01-11T21:12:45.337Z,50.10
2019-01-11T21:15:14.663Z,41.90
2019-01-11T21:17:44.033Z,44.40
2019-01-11T21:20:14.666Z,61.83
2019-01-11T21:22:43.763Z,53.33
2019-01-11T21:25:13.349Z,43.57
2019-01-11T21:27:42.136Z,46.00
2019-01-11T21:30:19.651Z,45.57
2019-01-11T21:32:49.623Z,38.50
2019-01-11T21:35:18.426Z,49.17
2019-01-11T21:37:47.268Z,53.67
2019-01-11T21:40:17.747Z,45.83
2019-01-11T21:42:46.499Z,47.47
2019-01-11T21:45:15.516Z,50.57
2019-01-11T21:47:44.660Z,50.50
2019-01-11T21:50:16.058Z,62.13
2019-01-11T21:52:45.105Z,43.30
2019-01-11T21:55:14.818Z,46.47
2019-01-11T21:57:44.021Z,40.90
2019-01-11T22:00:33.793Z,48.70
2019-01-11T22:03:02.524Z,36.27
2019-01-11T22:05:31.373Z,49.13
2019-01-11T22:08:00.097Z,41.80
2019-01-11T22:10:29.666Z,49.20
2019-01-11T22:12:59.075Z,38.43
2019-01-11T22:15:28.168Z,50.37
2019-01-11T22:17:57.158Z,44.13
2019-01-11T22:20:26.164Z,46.47
2019-01-11T22:22:55.149Z,46.43
2019-01-11T22:25:24.380Z,52.17
2019-01-11T22:27:53.487Z,38.73
2019-01-11T22:30:29.939Z,37.53
2019-01-11T22:32:54.715Z,36.73
2019-01-11T22:35:24.008Z,44.13
2019-01-11T22:37:52.676Z,40.63
2019-01-11T22:40:23.135Z,53.80
2019-01-11T22:42:57.371Z,42.83
2019-01-11T22:45:26.241Z,44.93
2019-01-11T22:47:55.323Z,38.40
2019-01-11T22:50:24.151Z,33.47
2019-01-11T22:52:56.046Z,43.03
2019-01-11T22:55:24.752Z,50.83
2019-01-11T22:57:53.753Z,37.40
2019-01-11T23:00:56.135Z,43.93
2019-01-11T23:03:31.827Z,35.30
2019-01-11T23:06:09.228Z,47.70
2019-01-11T23:08:38.174Z,40.50
2019-01-11T23:11:27.753Z,46.00
2019-01-11T23:13:56.686Z,44.67
2019-01-11T23:16:36.851Z,54.70
2019-01-11T23:19:08.294Z,44.10
2019-01-11T23:21:36.935Z,40.17
2019-01-11T23:24:05.742Z,49.77
2019-01-11T23:26:34.718Z,41.80
2019-01-11T23:29:03.560Z,42.60
2019-01-11T23:31:32.492Z,42.07
2019-01-11T23:34:01.485Z,38.03
2019-01-11T23:36:30.152Z,46.57
2019-01-11T23:38:59.086Z,47.23
2019-01-11T23:41:27.776Z,46.37
2019-01-11T23:43:56.725Z,49.33
2019-01-11T23:46:25.635Z,53.77
2019-01-11T23:48:54.293Z,47.83
2019-01-11T23:51:23.211Z,46.90
2019-01-11T23:53:51.854Z,49.77
2019-01-11T23:56:20.579Z,54.97
2019-01-11T23:58:49.784Z,31.57
